sensor_id;sensor_type;location;lat;lon;timestamp;P1;durP1;ratioP1;P2;durP2;ratioP2
18610;SDS011;9435;52.122;5.502;2023-06-22T00:01:32;13.68;;;8.63;;
18610;SDS011;9435;52.122;5.502;2023-06-22T00:04:00;14.13;;;9.20;;
18610;SDS011;9435;52.122;5.502;2023-06-22T00:06:27;13.60;;;9.00;;
18610;SDS011;9435;52.122;5.502;2023-06-22T00:08:54;15.30;;;10.20;;
18610;SDS011;9435;52.122;5.502;2023-06-22T00:11:21;14.48;;;9.20;;
18610;SDS011;9435;52.122;5.502;2023-06-22T00:13:49;13.98;;;9.07;;
18610;SDS011;9435;52.122;5.502;2023-06-22T00:16:16;12.27;;;8.68;;
18610;SDS011;9435;52.122;5.502;2023-06-22T00:18:45;12.82;;;8.98;;
18610;SDS011;9435;52.122;5.502;2023-06-22T00:21:12;12.70;;;8.75;;
18610;SDS011;9435;52.122;5.502;2023-06-22T00:23:39;15.85;;;9.75;;
18610;SDS011;9435;52.122;5.502;2023-06-22T00:26:06;14.25;;;9.50;;
18610;SDS011;9435;52.122;5.502;2023-06-22T00:28:33;13.95;;;9.23;;
18610;SDS011;9435;52.122;5.502;2023-06-22T00:31:00;13.60;;;8.57;;
18610;SDS011;9435;52.122;5.502;2023-06-22T00:33:28;13.77;;;9.68;;
18610;SDS011;9435;52.122;5.502;2023-06-22T00:35:56;12.80;;;9.38;;
18610;SDS011;9435;52.122;5.502;2023-06-22T00:38:23;12.05;;;8.48;;
18610;SDS011;9435;52.122;5.502;2023-06-22T00:40:50;11.85;;;7.90;;
18610;SDS011;9435;52.122;5.502;2023-06-22T00:43:17;12.52;;;8.65;;
18610;SDS011;9435;52.122;5.502;2023-06-22T00:45:44;11.73;;;8.02;;
18610;SDS011;9435;52.122;5.502;2023-06-22T00:48:12;11.15;;;8.20;;
18610;SDS011;9435;52.122;5.502;2023-06-22T00:50:41;11.57;;;8.30;;
18610;SDS011;9435;52.122;5.502;2023-06-22T00:53:11;12.48;;;8.75;;
18610;SDS011;9435;52.122;5.502;2023-06-22T00:55:41;13.30;;;8.52;;
18610;SDS011;9435;52.122;5.502;2023-06-22T00:58:10;13.20;;;8.73;;
18610;SDS011;9435;52.122;5.502;2023-06-22T01:00:38;11.50;;;8.20;;
18610;SDS011;9435;52.122;5.502;2023-06-22T01:03:06;10.63;;;7.85;;
18610;SDS011;9435;52.122;5.502;2023-06-22T01:05:34;11.60;;;7.80;;
18610;SDS011;9435;52.122;5.502;2023-06-22T01:08:05;11.02;;;8.05;;
18610;SDS011;9435;52.122;5.502;2023-06-22T01:10:41;11.43;;;7.70;;
18610;SDS011;9435;52.122;5.502;2023-06-22T01:13:14;11.45;;;7.78;;
18610;SDS011;9435;52.122;5.502;2023-06-22T01:15:49;14.32;;;8.23;;
18610;SDS011;9435;52.122;5.502;2023-06-22T01:18:21;13.57;;;8.73;;
18610;SDS011;9435;52.122;5.502;2023-06-22T01:20:52;13.45;;;8.77;;
18610;SDS011;9435;52.122;5.502;2023-06-22T01:23:22;14.00;;;9.02;;
18610;SDS011;9435;52.122;5.502;2023-06-22T01:25:59;14.75;;;9.27;;
18610;SDS011;9435;52.122;5.502;2023-06-22T01:28:39;13.77;;;8.85;;
18610;SDS011;9435;52.122;5.502;2023-06-22T01:31:10;13.07;;;9.00;;
18610;SDS011;9435;52.122;5.502;2023-06-22T01:33:41;12.55;;;8.55;;
18610;SDS011;9435;52.122;5.502;2023-06-22T01:36:10;12.18;;;8.88;;
18610;SDS011;9435;52.122;5.502;2023-06-22T01:38:38;13.90;;;8.95;;
18610;SDS011;9435;52.122;5.502;2023-06-22T01:41:05;13.70;;;8.57;;
18610;SDS011;9435;52.122;5.502;2023-06-22T01:43:32;13.05;;;8.70;;
18610;SDS011;9435;52.122;5.502;2023-06-22T01:46:02;12.60;;;8.52;;
18610;SDS011;9435;52.122;5.502;2023-06-22T01:48:30;16.17;;;9.30;;
18610;SDS011;9435;52.122;5.502;2023-06-22T01:50:58;15.20;;;9.75;;
18610;SDS011;9435;52.122;5.502;2023-06-22T01:53:26;14.05;;;8.98;;
18610;SDS011;9435;52.122;5.502;2023-06-22T01:55:53;14.20;;;9.27;;
18610;SDS011;9435;52.122;5.502;2023-06-22T01:58:20;16.55;;;9.40;;
18610;SDS011;9435;52.122;5.502;2023-06-22T02:00:53;11.55;;;7.95;;
18610;SDS011;9435;52.122;5.502;2023-06-22T02:03:28;13.82;;;8.82;;
18610;SDS011;9435;52.122;5.502;2023-06-22T02:06:00;12.77;;;8.80;;
18610;SDS011;9435;52.122;5.502;2023-06-22T02:08:31;12.27;;;8.38;;
18610;SDS011;9435;52.122;5.502;2023-06-22T02:11:01;15.98;;;7.70;;
18610;SDS011;9435;52.122;5.502;2023-06-22T02:13:29;10.38;;;7.55;;
18610;SDS011;9435;52.122;5.502;2023-06-22T02:15:58;10.80;;;7.63;;
18610;SDS011;9435;52.122;5.502;2023-06-22T02:18:28;11.43;;;8.00;;
18610;SDS011;9435;52.122;5.502;2023-06-22T02:20:55;12.05;;;8.13;;
18610;SDS011;9435;52.122;5.502;2023-06-22T02:23:22;10.98;;;8.18;;
18610;SDS011;9435;52.122;5.502;2023-06-22T02:25:49;10.90;;;7.57;;
18610;SDS011;9435;52.122;5.502;2023-06-22T02:28:16;10.30;;;7.22;;
18610;SDS011;9435;52.122;5.502;2023-06-22T02:30:43;9.77;;;7.45;;
18610;SDS011;9435;52.122;5.502;2023-06-22T02:33:10;9.95;;;7.38;;
18610;SDS011;9435;52.122;5.502;2023-06-22T02:35:39;9.40;;;6.63;;
18610;SDS011;9435;52.122;5.502;2023-06-22T02:38:10;8.98;;;6.68;;
18610;SDS011;9435;52.122;5.502;2023-06-22T02:40:37;12.18;;;7.45;;
18610;SDS011;9435;52.122;5.502;2023-06-22T02:43:05;11.10;;;7.32;;
18610;SDS011;9435;52.122;5.502;2023-06-22T02:45:32;8.95;;;6.68;;
18610;SDS011;9435;52.122;5.502;2023-06-22T02:47:59;11.65;;;7.68;;
18610;SDS011;9435;52.122;5.502;2023-06-22T02:50:26;10.40;;;7.38;;
18610;SDS011;9435;52.122;5.502;2023-06-22T02:52:55;10.90;;;7.97;;
18610;SDS011;9435;52.122;5.502;2023-06-22T02:55:23;10.52;;;7.20;;
18610;SDS011;9435;52.122;5.502;2023-06-22T02:57:50;10.98;;;7.97;;
18610;SDS011;9435;52.122;5.502;2023-06-22T03:00:18;10.25;;;7.80;;
18610;SDS011;9435;52.122;5.502;2023-06-22T03:02:47;9.63;;;7.18;;
18610;SDS011;9435;52.122;5.502;2023-06-22T03:05:15;10.68;;;6.82;;
18610;SDS011;9435;52.122;5.502;2023-06-22T03:07:43;10.00;;;6.90;;
18610;SDS011;9435;52.122;5.502;2023-06-22T03:10:12;11.63;;;7.57;;
18610;SDS011;9435;52.122;5.502;2023-06-22T03:12:40;11.15;;;7.57;;
18610;SDS011;9435;52.122;5.502;2023-06-22T03:15:08;10.90;;;7.38;;
18610;SDS011;9435;52.122;5.502;2023-06-22T03:17:36;11.35;;;7.78;;
18610;SDS011;9435;52.122;5.502;2023-06-22T03:20:05;12.70;;;7.07;;
18610;SDS011;9435;52.122;5.502;2023-06-22T03:22:34;9.20;;;6.25;;
18610;SDS011;9435;52.122;5.502;2023-06-22T03:25:01;8.98;;;6.70;;
18610;SDS011;9435;52.122;5.502;2023-06-22T03:27:30;10.88;;;7.30;;
18610;SDS011;9435;52.122;5.502;2023-06-22T03:29:58;10.18;;;7.18;;
18610;SDS011;9435;52.122;5.502;2023-06-22T03:32:25;9.23;;;6.60;;
18610;SDS011;9435;52.122;5.502;2023-06-22T03:34:53;7.90;;;5.60;;
18610;SDS011;9435;52.122;5.502;2023-06-22T03:37:24;6.03;;;4.68;;
18610;SDS011;9435;52.122;5.502;2023-06-22T03:39:51;8.38;;;5.78;;
18610;SDS011;9435;52.122;5.502;2023-06-22T03:42:18;8.80;;;5.55;;
18610;SDS011;9435;52.122;5.502;2023-06-22T03:44:46;6.88;;;5.28;;
18610;SDS011;9435;52.122;5.502;2023-06-22T03:47:14;8.02;;;5.68;;
18610;SDS011;9435;52.122;5.502;2023-06-22T03:49:41;11.35;;;6.82;;
18610;SDS011;9435;52.122;5.502;2023-06-22T03:52:08;9.02;;;6.30;;
18610;SDS011;9435;52.122;5.502;2023-06-22T03:54:36;10.85;;;6.40;;
18610;SDS011;9435;52.122;5.502;2023-06-22T03:57:03;6.55;;;5.00;;
18610;SDS011;9435;52.122;5.502;2023-06-22T03:59:31;7.32;;;5.55;;
18610;SDS011;9435;52.122;5.502;2023-06-22T04:02:00;7.43;;;5.60;;
18610;SDS011;9435;52.122;5.502;2023-06-22T04:04:27;7.95;;;5.50;;
18610;SDS011;9435;52.122;5.502;2023-06-22T04:06:54;8.57;;;6.00;;
18610;SDS011;9435;52.122;5.502;2023-06-22T04:09:21;9.68;;;6.70;;
18610;SDS011;9435;52.122;5.502;2023-06-22T04:11:49;9.52;;;7.28;;
18610;SDS011;9435;52.122;5.502;2023-06-22T04:14:16;11.05;;;7.90;;
18610;SDS011;9435;52.122;5.502;2023-06-22T04:16:43;10.88;;;7.72;;
18610;SDS011;9435;52.122;5.502;2023-06-22T04:19:11;10.50;;;7.53;;
18610;SDS011;9435;52.122;5.502;2023-06-22T04:21:41;12.05;;;8.10;;
18610;SDS011;9435;52.122;5.502;2023-06-22T04:24:09;11.00;;;8.25;;
18610;SDS011;9435;52.122;5.502;2023-06-22T04:26:37;14.77;;;7.75;;
18610;SDS011;9435;52.122;5.502;2023-06-22T04:29:06;11.73;;;7.90;;
18610;SDS011;9435;52.122;5.502;2023-06-22T04:31:34;12.77;;;8.32;;
18610;SDS011;9435;52.122;5.502;2023-06-22T04:34:02;14.90;;;9.45;;
18610;SDS011;9435;52.122;5.502;2023-06-22T04:36:34;20.50;;;13.07;;
18610;SDS011;9435;52.122;5.502;2023-06-22T04:39:04;21.20;;;14.32;;
18610;SDS011;9435;52.122;5.502;2023-06-22T04:41:34;25.10;;;15.07;;
18610;SDS011;9435;52.122;5.502;2023-06-22T04:44:08;28.30;;;15.82;;
18610;SDS011;9435;52.122;5.502;2023-06-22T04:46:36;22.35;;;14.23;;
18610;SDS011;9435;52.122;5.502;2023-06-22T04:49:07;28.45;;;14.23;;
18610;SDS011;9435;52.122;5.502;2023-06-22T04:51:41;29.80;;;15.23;;
18610;SDS011;9435;52.122;5.502;2023-06-22T04:54:09;28.58;;;16.00;;
18610;SDS011;9435;52.122;5.502;2023-06-22T04:56:36;33.45;;;14.43;;
18610;SDS011;9435;52.122;5.502;2023-06-22T04:59:06;32.40;;;14.65;;
18610;SDS011;9435;52.122;5.502;2023-06-22T05:01:38;25.20;;;15.65;;
18610;SDS011;9435;52.122;5.502;2023-06-22T05:04:05;30.45;;;15.70;;
18610;SDS011;9435;52.122;5.502;2023-06-22T05:06:32;26.08;;;15.25;;
18610;SDS011;9435;52.122;5.502;2023-06-22T05:09:01;26.65;;;15.10;;
18610;SDS011;9435;52.122;5.502;2023-06-22T05:11:30;29.55;;;17.20;;
18610;SDS011;9435;52.122;5.502;2023-06-22T05:13:57;24.73;;;15.77;;
18610;SDS011;9435;52.122;5.502;2023-06-22T05:16:24;30.55;;;17.77;;
18610;SDS011;9435;52.122;5.502;2023-06-22T05:18:52;29.13;;;19.00;;
18610;SDS011;9435;52.122;5.502;2023-06-22T05:21:23;27.50;;;16.75;;
18610;SDS011;9435;52.122;5.502;2023-06-22T05:23:52;28.10;;;19.00;;
18610;SDS011;9435;52.122;5.502;2023-06-22T05:26:21;37.85;;;21.48;;
18610;SDS011;9435;52.122;5.502;2023-06-22T05:28:49;29.67;;;19.20;;
18610;SDS011;9435;52.122;5.502;2023-06-22T05:31:16;31.23;;;19.42;;
18610;SDS011;9435;52.122;5.502;2023-06-22T05:33:45;33.47;;;21.17;;
18610;SDS011;9435;52.122;5.502;2023-06-22T05:36:13;41.97;;;24.90;;
18610;SDS011;9435;52.122;5.502;2023-06-22T05:38:41;39.47;;;23.20;;
18610;SDS011;9435;52.122;5.502;2023-06-22T05:41:08;41.63;;;25.33;;
18610;SDS011;9435;52.122;5.502;2023-06-22T05:43:37;46.47;;;27.65;;
18610;SDS011;9435;52.122;5.502;2023-06-22T05:46:04;46.40;;;27.17;;
18610;SDS011;9435;52.122;5.502;2023-06-22T05:48:31;42.03;;;25.92;;
18610;SDS011;9435;52.122;5.502;2023-06-22T05:50:58;46.42;;;28.67;;
18610;SDS011;9435;52.122;5.502;2023-06-22T05:53:25;47.20;;;30.20;;
18610;SDS011;9435;52.122;5.502;2023-06-22T05:55:53;46.10;;;29.50;;
18610;SDS011;9435;52.122;5.502;2023-06-22T05:58:20;43.80;;;27.00;;
18610;SDS011;9435;52.122;5.502;2023-06-22T06:00:48;50.70;;;30.13;;
18610;SDS011;9435;52.122;5.502;2023-06-22T06:03:15;50.78;;;30.70;;
18610;SDS011;9435;52.122;5.502;2023-06-22T06:05:43;47.97;;;31.23;;
18610;SDS011;9435;52.122;5.502;2023-06-22T06:08:11;46.78;;;30.38;;
18610;SDS011;9435;52.122;5.502;2023-06-22T06:10:38;50.00;;;30.42;;
18610;SDS011;9435;52.122;5.502;2023-06-22T06:13:08;49.83;;;30.23;;
18610;SDS011;9435;52.122;5.502;2023-06-22T06:15:35;49.92;;;30.65;;
18610;SDS011;9435;52.122;5.502;2023-06-22T06:18:05;47.00;;;30.45;;
18610;SDS011;9435;52.122;5.502;2023-06-22T06:20:34;50.13;;;30.17;;
18610;SDS011;9435;52.122;5.502;2023-06-22T06:23:14;50.47;;;29.98;;
18610;SDS011;9435;52.122;5.502;2023-06-22T06:25:42;45.60;;;29.08;;
18610;SDS011;9435;52.122;5.502;2023-06-22T06:28:09;44.67;;;28.08;;
18610;SDS011;9435;52.122;5.502;2023-06-22T06:30:36;44.22;;;27.55;;
18610;SDS011;9435;52.122;5.502;2023-06-22T06:33:05;43.50;;;27.48;;
18610;SDS011;9435;52.122;5.502;2023-06-22T06:35:33;44.55;;;25.58;;
18610;SDS011;9435;52.122;5.502;2023-06-22T06:38:01;40.35;;;25.23;;
18610;SDS011;9435;52.122;5.502;2023-06-22T06:40:28;43.30;;;25.13;;
18610;SDS011;9435;52.122;5.502;2023-06-22T06:42:55;35.33;;;23.92;;
18610;SDS011;9435;52.122;5.502;2023-06-22T06:45:23;40.25;;;24.17;;
18610;SDS011;9435;52.122;5.502;2023-06-22T06:47:53;39.70;;;24.05;;
18610;SDS011;9435;52.122;5.502;2023-06-22T06:50:22;37.03;;;23.20;;
18610;SDS011;9435;52.122;5.502;2023-06-22T06:52:49;37.40;;;22.65;;
18610;SDS011;9435;52.122;5.502;2023-06-22T06:55:16;34.58;;;22.55;;
18610;SDS011;9435;52.122;5.502;2023-06-22T06:57:44;35.45;;;21.45;;
18610;SDS011;9435;52.122;5.502;2023-06-22T07:00:13;34.92;;;22.23;;
18610;SDS011;9435;52.122;5.502;2023-06-22T07:02:42;36.58;;;22.02;;
18610;SDS011;9435;52.122;5.502;2023-06-22T07:05:10;38.58;;;22.45;;
18610;SDS011;9435;52.122;5.502;2023-06-22T07:07:39;35.22;;;20.65;;
18610;SDS011;9435;52.122;5.502;2023-06-22T07:10:08;32.50;;;20.75;;
18610;SDS011;9435;52.122;5.502;2023-06-22T07:12:36;31.23;;;20.63;;
18610;SDS011;9435;52.122;5.502;2023-06-22T07:15:03;32.25;;;20.02;;
18610;SDS011;9435;52.122;5.502;2023-06-22T07:17:35;29.13;;;19.80;;
18610;SDS011;9435;52.122;5.502;2023-06-22T07:20:06;31.67;;;19.80;;
18610;SDS011;9435;52.122;5.502;2023-06-22T07:22:35;27.65;;;20.27;;
18610;SDS011;9435;52.122;5.502;2023-06-22T07:25:04;29.08;;;19.27;;
18610;SDS011;9435;52.122;5.502;2023-06-22T07:27:34;34.47;;;20.23;;
18610;SDS011;9435;52.122;5.502;2023-06-22T07:30:05;29.23;;;18.80;;
18610;SDS011;9435;52.122;5.502;2023-06-22T07:32:33;31.08;;;18.98;;
18610;SDS011;9435;52.122;5.502;2023-06-22T07:35:00;27.10;;;17.40;;
18610;SDS011;9435;52.122;5.502;2023-06-22T07:37:28;29.30;;;18.52;;
18610;SDS011;9435;52.122;5.502;2023-06-22T07:39:55;30.25;;;17.98;;
18610;SDS011;9435;52.122;5.502;2023-06-22T07:42:25;26.27;;;17.88;;
18610;SDS011;9435;52.122;5.502;2023-06-22T07:44:53;29.25;;;17.55;;
18610;SDS011;9435;52.122;5.502;2023-06-22T07:47:21;24.80;;;16.48;;
18610;SDS011;9435;52.122;5.502;2023-06-22T07:49:50;26.08;;;17.35;;
18610;SDS011;9435;52.122;5.502;2023-06-22T07:52:19;25.98;;;16.52;;
18610;SDS011;9435;52.122;5.502;2023-06-22T07:54:47;25.63;;;15.90;;
18610;SDS011;9435;52.122;5.502;2023-06-22T07:57:14;24.23;;;15.73;;
18610;SDS011;9435;52.122;5.502;2023-06-22T07:59:43;23.23;;;15.00;;
18610;SDS011;9435;52.122;5.502;2023-06-22T08:02:10;25.77;;;15.68;;
18610;SDS011;9435;52.122;5.502;2023-06-22T08:04:37;25.20;;;15.55;;
18610;SDS011;9435;52.122;5.502;2023-06-22T08:07:05;25.00;;;14.15;;
18610;SDS011;9435;52.122;5.502;2023-06-22T08:09:32;20.85;;;13.82;;
18610;SDS011;9435;52.122;5.502;2023-06-22T08:11:59;23.27;;;15.18;;
18610;SDS011;9435;52.122;5.502;2023-06-22T08:14:26;22.38;;;14.45;;
18610;SDS011;9435;52.122;5.502;2023-06-22T08:16:55;21.77;;;14.48;;
18610;SDS011;9435;52.122;5.502;2023-06-22T08:19:23;22.33;;;14.43;;
18610;SDS011;9435;52.122;5.502;2023-06-22T08:21:50;20.27;;;13.15;;
18610;SDS011;9435;52.122;5.502;2023-06-22T08:24:17;20.80;;;13.07;;
18610;SDS011;9435;52.122;5.502;2023-06-22T08:26:44;19.02;;;12.48;;
18610;SDS011;9435;52.122;5.502;2023-06-22T08:29:11;19.30;;;11.93;;
18610;SDS011;9435;52.122;5.502;2023-06-22T08:31:39;18.48;;;12.13;;
18610;SDS011;9435;52.122;5.502;2023-06-22T08:34:07;17.13;;;11.50;;
18610;SDS011;9435;52.122;5.502;2023-06-22T08:36:35;21.67;;;12.02;;
18610;SDS011;9435;52.122;5.502;2023-06-22T08:39:16;19.90;;;12.13;;
18610;SDS011;9435;52.122;5.502;2023-06-22T08:41:43;21.38;;;12.57;;
18610;SDS011;9435;52.122;5.502;2023-06-22T08:44:11;21.50;;;12.50;;
18610;SDS011;9435;52.122;5.502;2023-06-22T08:46:38;21.95;;;12.82;;
18610;SDS011;9435;52.122;5.502;2023-06-22T08:49:08;16.05;;;11.52;;
18610;SDS011;9435;52.122;5.502;2023-06-22T08:51:36;16.60;;;11.27;;
18610;SDS011;9435;52.122;5.502;2023-06-22T08:54:03;17.40;;;10.18;;
18610;SDS011;9435;52.122;5.502;2023-06-22T08:56:30;15.40;;;9.60;;
18610;SDS011;9435;52.122;5.502;2023-06-22T08:58:57;13.40;;;8.40;;
18610;SDS011;9435;52.122;5.502;2023-06-22T09:01:27;13.98;;;8.55;;
18610;SDS011;9435;52.122;5.502;2023-06-22T09:03:54;16.42;;;8.48;;
18610;SDS011;9435;52.122;5.502;2023-06-22T09:06:24;17.10;;;9.10;;
18610;SDS011;9435;52.122;5.502;2023-06-22T09:08:51;11.90;;;7.40;;
18610;SDS011;9435;52.122;5.502;2023-06-22T09:11:18;10.45;;;7.10;;
18610;SDS011;9435;52.122;5.502;2023-06-22T09:13:45;11.85;;;7.32;;
18610;SDS011;9435;52.122;5.502;2023-06-22T09:16:12;13.13;;;7.65;;
18610;SDS011;9435;52.122;5.502;2023-06-22T09:18:40;11.18;;;7.75;;
18610;SDS011;9435;52.122;5.502;2023-06-22T09:21:07;11.55;;;7.70;;
18610;SDS011;9435;52.122;5.502;2023-06-22T09:23:35;13.77;;;7.47;;
18610;SDS011;9435;52.122;5.502;2023-06-22T09:26:02;14.80;;;7.78;;
18610;SDS011;9435;52.122;5.502;2023-06-22T09:28:30;12.07;;;8.23;;
18610;SDS011;9435;52.122;5.502;2023-06-22T09:30:58;14.48;;;8.30;;
18610;SDS011;9435;52.122;5.502;2023-06-22T09:33:25;14.70;;;8.00;;
18610;SDS011;9435;52.122;5.502;2023-06-22T09:35:54;10.85;;;7.72;;
18610;SDS011;9435;52.122;5.502;2023-06-22T09:38:22;12.70;;;7.60;;
18610;SDS011;9435;52.122;5.502;2023-06-22T09:40:50;15.23;;;7.93;;
18610;SDS011;9435;52.122;5.502;2023-06-22T09:43:17;16.50;;;7.30;;
18610;SDS011;9435;52.122;5.502;2023-06-22T09:45:44;17.42;;;6.68;;
18610;SDS011;9435;52.122;5.502;2023-06-22T09:48:11;14.82;;;6.93;;
18610;SDS011;9435;52.122;5.502;2023-06-22T09:50:40;23.52;;;8.65;;
18610;SDS011;9435;52.122;5.502;2023-06-22T09:53:07;12.05;;;7.88;;
18610;SDS011;9435;52.122;5.502;2023-06-22T09:55:35;10.70;;;6.40;;
18610;SDS011;9435;52.122;5.502;2023-06-22T09:58:03;13.55;;;6.22;;
18610;SDS011;9435;52.122;5.502;2023-06-22T10:00:30;9.50;;;5.80;;
18610;SDS011;9435;52.122;5.502;2023-06-22T10:02:57;21.85;;;7.00;;
18610;SDS011;9435;52.122;5.502;2023-06-22T10:05:25;18.95;;;5.30;;
18610;SDS011;9435;52.122;5.502;2023-06-22T10:07:52;11.70;;;5.03;;
18610;SDS011;9435;52.122;5.502;2023-06-22T10:10:19;20.42;;;4.78;;
18610;SDS011;9435;52.122;5.502;2023-06-22T10:12:46;20.35;;;5.50;;
18610;SDS011;9435;52.122;5.502;2023-06-22T10:15:16;14.10;;;5.15;;
18610;SDS011;9435;52.122;5.502;2023-06-22T10:17:43;14.50;;;5.40;;
18610;SDS011;9435;52.122;5.502;2023-06-22T10:20:10;20.00;;;5.95;;
18610;SDS011;9435;52.122;5.502;2023-06-22T10:22:38;17.70;;;5.93;;
18610;SDS011;9435;52.122;5.502;2023-06-22T10:25:06;18.85;;;6.47;;
18610;SDS011;9435;52.122;5.502;2023-06-22T10:27:34;16.13;;;7.40;;
18610;SDS011;9435;52.122;5.502;2023-06-22T10:30:01;19.83;;;8.00;;
18610;SDS011;9435;52.122;5.502;2023-06-22T10:32:31;18.15;;;7.65;;
18610;SDS011;9435;52.122;5.502;2023-06-22T10:34:58;20.35;;;7.75;;
18610;SDS011;9435;52.122;5.502;2023-06-22T10:37:26;23.10;;;7.43;;
18610;SDS011;9435;52.122;5.502;2023-06-22T10:39:53;16.02;;;6.93;;
18610;SDS011;9435;52.122;5.502;2023-06-22T10:42:20;11.73;;;6.40;;
18610;SDS011;9435;52.122;5.502;2023-06-22T10:44:47;13.30;;;6.93;;
18610;SDS011;9435;52.122;5.502;2023-06-22T10:47:14;18.35;;;6.80;;
18610;SDS011;9435;52.122;5.502;2023-06-22T10:49:43;21.35;;;6.68;;
18610;SDS011;9435;52.122;5.502;2023-06-22T10:52:10;24.60;;;7.18;;
18610;SDS011;9435;52.122;5.502;2023-06-22T10:54:37;21.52;;;7.20;;
18610;SDS011;9435;52.122;5.502;2023-06-22T10:57:05;16.85;;;6.93;;
18610;SDS011;9435;52.122;5.502;2023-06-22T10:59:32;18.98;;;7.03;;
18610;SDS011;9435;52.122;5.502;2023-06-22T11:02:00;14.90;;;6.38;;
18610;SDS011;9435;52.122;5.502;2023-06-22T11:04:27;11.73;;;6.60;;
18610;SDS011;9435;52.122;5.502;2023-06-22T11:06:56;16.70;;;6.72;;
18610;SDS011;9435;52.122;5.502;2023-06-22T11:09:23;11.20;;;7.03;;
18610;SDS011;9435;52.122;5.502;2023-06-22T11:11:51;11.45;;;7.47;;
18610;SDS011;9435;52.122;5.502;2023-06-22T11:14:19;17.65;;;7.68;;
18610;SDS011;9435;52.122;5.502;2023-06-22T11:16:46;14.00;;;6.70;;
18610;SDS011;9435;52.122;5.502;2023-06-22T11:19:13;17.15;;;7.80;;
18610;SDS011;9435;52.122;5.502;2023-06-22T11:21:41;18.70;;;7.93;;
18610;SDS011;9435;52.122;5.502;2023-06-22T11:24:09;17.77;;;7.70;;
18610;SDS011;9435;52.122;5.502;2023-06-22T11:26:36;13.38;;;7.65;;
18610;SDS011;9435;52.122;5.502;2023-06-22T11:29:03;14.45;;;7.20;;
18610;SDS011;9435;52.122;5.502;2023-06-22T11:31:31;17.80;;;7.45;;
18610;SDS011;9435;52.122;5.502;2023-06-22T11:33:58;20.63;;;7.93;;
18610;SDS011;9435;52.122;5.502;2023-06-22T11:36:25;20.90;;;7.90;;
18610;SDS011;9435;52.122;5.502;2023-06-22T11:38:54;26.23;;;9.18;;
18610;SDS011;9435;52.122;5.502;2023-06-22T11:41:23;18.85;;;8.40;;
18610;SDS011;9435;52.122;5.502;2023-06-22T11:43:50;19.58;;;8.00;;
18610;SDS011;9435;52.122;5.502;2023-06-22T11:46:17;17.20;;;8.00;;
18610;SDS011;9435;52.122;5.502;2023-06-22T11:48:44;15.82;;;8.32;;
18610;SDS011;9435;52.122;5.502;2023-06-22T11:51:11;14.80;;;7.85;;
18610;SDS011;9435;52.122;5.502;2023-06-22T11:53:39;20.20;;;8.43;;
18610;SDS011;9435;52.122;5.502;2023-06-22T11:56:07;16.05;;;7.88;;
18610;SDS011;9435;52.122;5.502;2023-06-22T11:58:35;12.95;;;8.00;;
18610;SDS011;9435;52.122;5.502;2023-06-22T12:01:03;15.48;;;9.23;;
18610;SDS011;9435;52.122;5.502;2023-06-22T12:03:30;26.92;;;9.55;;
18610;SDS011;9435;52.122;5.502;2023-06-22T12:05:57;20.00;;;9.35;;
18610;SDS011;9435;52.122;5.502;2023-06-22T12:08:24;19.77;;;9.35;;
18610;SDS011;9435;52.122;5.502;2023-06-22T12:10:51;25.33;;;9.57;;
18610;SDS011;9435;52.122;5.502;2023-06-22T12:13:19;22.42;;;9.70;;
18610;SDS011;9435;52.122;5.502;2023-06-22T12:15:47;16.30;;;10.48;;
18610;SDS011;9435;52.122;5.502;2023-06-22T12:18:16;22.98;;;11.55;;
18610;SDS011;9435;52.122;5.502;2023-06-22T12:20:45;30.85;;;12.30;;
18610;SDS011;9435;52.122;5.502;2023-06-22T12:23:14;18.40;;;11.00;;
18610;SDS011;9435;52.122;5.502;2023-06-22T12:25:41;27.17;;;11.60;;
18610;SDS011;9435;52.122;5.502;2023-06-22T12:28:11;15.52;;;10.73;;
18610;SDS011;9435;52.122;5.502;2023-06-22T12:30:38;16.30;;;10.73;;
18610;SDS011;9435;52.122;5.502;2023-06-22T12:33:07;15.88;;;10.52;;
18610;SDS011;9435;52.122;5.502;2023-06-22T12:35:34;31.83;;;11.25;;
18610;SDS011;9435;52.122;5.502;2023-06-22T12:38:01;33.22;;;12.20;;
18610;SDS011;9435;52.122;5.502;2023-06-22T12:40:31;24.10;;;12.35;;
18610;SDS011;9435;52.122;5.502;2023-06-22T12:42:58;16.55;;;10.57;;
18610;SDS011;9435;52.122;5.502;2023-06-22T12:45:27;16.50;;;11.50;;
18610;SDS011;9435;52.122;5.502;2023-06-22T12:47:58;16.35;;;10.90;;
18610;SDS011;9435;52.122;5.502;2023-06-22T12:50:27;20.00;;;11.65;;
18610;SDS011;9435;52.122;5.502;2023-06-22T12:52:55;19.15;;;13.70;;
18610;SDS011;9435;52.122;5.502;2023-06-22T12:55:23;16.85;;;12.27;;
18610;SDS011;9435;52.122;5.502;2023-06-22T12:57:50;16.08;;;11.05;;
18610;SDS011;9435;52.122;5.502;2023-06-22T13:00:17;19.48;;;12.60;;
18610;SDS011;9435;52.122;5.502;2023-06-22T13:02:45;20.05;;;13.20;;
18610;SDS011;9435;52.122;5.502;2023-06-22T13:05:12;18.70;;;11.80;;
18610;SDS011;9435;52.122;5.502;2023-06-22T13:07:41;19.85;;;14.02;;
18610;SDS011;9435;52.122;5.502;2023-06-22T13:10:08;27.17;;;14.32;;
18610;SDS011;9435;52.122;5.502;2023-06-22T13:12:35;23.58;;;10.23;;
18610;SDS011;9435;52.122;5.502;2023-06-22T13:15:03;21.50;;;10.68;;
18610;SDS011;9435;52.122;5.502;2023-06-22T13:17:30;19.92;;;11.45;;
18610;SDS011;9435;52.122;5.502;2023-06-22T13:19:57;14.02;;;9.73;;
18610;SDS011;9435;52.122;5.502;2023-06-22T13:22:28;24.83;;;15.40;;
18610;SDS011;9435;52.122;5.502;2023-06-22T13:24:58;26.48;;;16.88;;
18610;SDS011;9435;52.122;5.502;2023-06-22T13:27:26;23.05;;;15.75;;
18610;SDS011;9435;52.122;5.502;2023-06-22T13:29:53;19.02;;;13.18;;
18610;SDS011;9435;52.122;5.502;2023-06-22T13:32:20;24.25;;;15.32;;
18610;SDS011;9435;52.122;5.502;2023-06-22T13:34:47;17.35;;;13.77;;
18610;SDS011;9435;52.122;5.502;2023-06-22T13:37:14;24.73;;;13.27;;
18610;SDS011;9435;52.122;5.502;2023-06-22T13:39:42;21.80;;;14.88;;
18610;SDS011;9435;52.122;5.502;2023-06-22T13:42:10;19.08;;;12.27;;
18610;SDS011;9435;52.122;5.502;2023-06-22T13:44:38;21.27;;;14.20;;
18610;SDS011;9435;52.122;5.502;2023-06-22T13:47:05;24.63;;;14.40;;
18610;SDS011;9435;52.122;5.502;2023-06-22T13:49:32;21.55;;;13.07;;
18610;SDS011;9435;52.122;5.502;2023-06-22T13:52:00;27.83;;;11.70;;
18610;SDS011;9435;52.122;5.502;2023-06-22T13:54:28;18.85;;;13.32;;
18610;SDS011;9435;52.122;5.502;2023-06-22T13:56:55;24.02;;;14.00;;
18610;SDS011;9435;52.122;5.502;2023-06-22T13:59:24;16.98;;;12.82;;
18610;SDS011;9435;52.122;5.502;2023-06-22T14:01:53;19.95;;;13.80;;
18610;SDS011;9435;52.122;5.502;2023-06-22T14:04:21;19.73;;;13.15;;
18610;SDS011;9435;52.122;5.502;2023-06-22T14:06:49;20.75;;;15.10;;
18610;SDS011;9435;52.122;5.502;2023-06-22T14:09:16;19.77;;;12.40;;
18610;SDS011;9435;52.122;5.502;2023-06-22T14:11:43;24.75;;;15.20;;
18610;SDS011;9435;52.122;5.502;2023-06-22T14:14:10;21.02;;;13.38;;
18610;SDS011;9435;52.122;5.502;2023-06-22T14:16:39;20.45;;;15.20;;
18610;SDS011;9435;52.122;5.502;2023-06-22T14:19:06;20.00;;;14.07;;
18610;SDS011;9435;52.122;5.502;2023-06-22T14:21:33;22.02;;;14.05;;
18610;SDS011;9435;52.122;5.502;2023-06-22T14:24:00;22.05;;;15.50;;
18610;SDS011;9435;52.122;5.502;2023-06-22T14:26:27;22.88;;;16.40;;
18610;SDS011;9435;52.122;5.502;2023-06-22T14:28:54;23.63;;;15.90;;
18610;SDS011;9435;52.122;5.502;2023-06-22T14:31:22;22.20;;;15.93;;
18610;SDS011;9435;52.122;5.502;2023-06-22T14:33:50;24.13;;;16.70;;
18610;SDS011;9435;52.122;5.502;2023-06-22T14:36:17;25.00;;;17.45;;
18610;SDS011;9435;52.122;5.502;2023-06-22T14:38:44;25.40;;;19.02;;
18610;SDS011;9435;52.122;5.502;2023-06-22T14:41:12;29.73;;;18.35;;
18610;SDS011;9435;52.122;5.502;2023-06-22T14:43:43;25.50;;;18.08;;
18610;SDS011;9435;52.122;5.502;2023-06-22T14:46:12;26.55;;;18.33;;
18610;SDS011;9435;52.122;5.502;2023-06-22T14:48:39;30.55;;;19.35;;